sensor_id;sensor_type;location;lat;lon;timestamp;pressure;altitude;pressure_sealevel;temperature;humidity
42247;BME280;27913;42.722;23.268;2023-05-16T00:00:04;94656.44;;;14.57;94.39
42247;BME280;27913;42.722;23.268;2023-05-16T00:05:08;94492.94;;;13.53;94.11
42247;BME280;27913;42.722;23.268;2023-05-16T00:07:45;94548.34;;;13.86;94.44
42247;BME280;27913;42.722;23.268;2023-05-16T00:10:12;94709.47;;;14.88;94.63
42247;BME280;27913;42.722;23.268;2023-05-16T00:12:38;94701.72;;;14.87;94.67
42247;BME280;27913;42.722;23.268;2023-05-16T00:15:05;94466.34;;;13.48;94.42
42247;BME280;27913;42.722;23.268;2023-05-16T00:17:33;94692.78;;;14.88;94.50
42247;BME280;27913;42.722;23.268;2023-05-16T00:19:59;94639.59;;;14.52;94.61
42247;BME280;27913;42.722;23.268;2023-05-16T00:22:34;94591.97;;;14.33;94.25
42247;BME280;27913;42.722;23.268;2023-05-16T00:25:00;94638.56;;;14.53;94.17
42247;BME280;27913;42.722;23.268;2023-05-16T00:27:26;94485.84;;;13.54;93.83
42247;BME280;27913;42.722;23.268;2023-05-16T00:29:51;94691.34;;;14.85;93.45
42247;BME280;27913;42.722;23.268;2023-05-16T00:32:17;94434.94;;;13.21;93.80
42247;BME280;27913;42.722;23.268;2023-05-16T00:34:42;94655.19;;;14.60;94.55
42247;BME280;27913;42.722;23.268;2023-05-16T00:37:08;94648.84;;;14.61;94.58
42247;BME280;27913;42.722;23.268;2023-05-16T00:39:33;94658.78;;;14.66;95.20
42247;BME280;27913;42.722;23.268;2023-05-16T00:41:59;94616.09;;;14.43;95.02
42247;BME280;27913;42.722;23.268;2023-05-16T00:44:24;94668.50;;;14.72;95.58
42247;BME280;27913;42.722;23.268;2023-05-16T00:46:50;94469.00;;;13.48;95.47
42247;BME280;27913;42.722;23.268;2023-05-16T00:49:16;94597.63;;;14.36;95.39
42247;BME280;27913;42.722;23.268;2023-05-16T00:51:42;94659.28;;;14.74;95.48
42247;BME280;27913;42.722;23.268;2023-05-16T00:54:09;94563.69;;;14.15;95.83
42247;BME280;27913;42.722;23.268;2023-05-16T00:56:34;94649.75;;;14.73;95.85
42247;BME280;27913;42.722;23.268;2023-05-16T00:59:01;94605.44;;;14.31;96.16
42247;BME280;27913;42.722;23.268;2023-05-16T01:01:28;94617.25;;;14.47;96.17
42247;BME280;27913;42.722;23.268;2023-05-16T01:03:54;94650.47;;;14.62;96.65
42247;BME280;27913;42.722;23.268;2023-05-16T01:06:19;94647.25;;;14.60;96.71
42247;BME280;27913;42.722;23.268;2023-05-16T01:08:45;94590.78;;;14.29;96.31
42247;BME280;27913;42.722;23.268;2023-05-16T01:11:25;94545.94;;;14.03;96.31
42247;BME280;27913;42.722;23.268;2023-05-16T01:14:09;94578.38;;;14.29;96.33
42247;BME280;27913;42.722;23.268;2023-05-16T01:16:46;94490.16;;;13.67;96.35
42247;BME280;27913;42.722;23.268;2023-05-16T01:24:43;94380.19;;;13.10;96.06
42247;BME280;27913;42.722;23.268;2023-05-16T01:27:15;94460.81;;;13.57;96.17
42247;BME280;27913;42.722;23.268;2023-05-16T01:29:41;94631.16;;;14.61;96.27
42247;BME280;27913;42.722;23.268;2023-05-16T01:32:06;94631.72;;;14.64;96.35
42247;BME280;27913;42.722;23.268;2023-05-16T01:34:32;94611.66;;;14.56;96.07
42247;BME280;27913;42.722;23.268;2023-05-16T01:39:34;94514.41;;;13.83;96.70
42247;BME280;27913;42.722;23.268;2023-05-16T01:42:04;94477.25;;;13.77;96.70
42247;BME280;27913;42.722;23.268;2023-05-16T01:47:13;94604.19;;;14.53;96.37
42247;BME280;27913;42.722;23.268;2023-05-16T01:52:21;94552.66;;;13.99;97.03
42247;BME280;27913;42.722;23.268;2023-05-16T01:54:52;94504.41;;;13.66;97.15
42247;BME280;27913;42.722;23.268;2023-05-16T01:57:20;94527.28;;;13.79;97.71
42247;BME280;27913;42.722;23.268;2023-05-16T01:59:48;94540.03;;;13.82;98.15
42247;BME280;27913;42.722;23.268;2023-05-16T02:02:17;94591.16;;;14.13;98.91
42247;BME280;27913;42.722;23.268;2023-05-16T02:04:42;94591.00;;;14.08;99.17
42247;BME280;27913;42.722;23.268;2023-05-16T02:07:08;94606.19;;;13.94;100.00
42247;BME280;27913;42.722;23.268;2023-05-16T02:09:34;94428.28;;;12.86;100.00
42247;BME280;27913;42.722;23.268;2023-05-16T02:12:00;94535.16;;;13.60;100.00
42247;BME280;27913;42.722;23.268;2023-05-16T02:14:26;94600.69;;;13.96;100.00
42247;BME280;27913;42.722;23.268;2023-05-16T02:16:52;94529.50;;;13.57;100.00
42247;BME280;27913;42.722;23.268;2023-05-16T02:19:17;94486.84;;;13.27;100.00
42247;BME280;27913;42.722;23.268;2023-05-16T02:21:43;94595.53;;;13.82;100.00
42247;BME280;27913;42.722;23.268;2023-05-16T02:24:08;94592.53;;;13.79;100.00
42247;BME280;27913;42.722;23.268;2023-05-16T02:26:34;94587.44;;;13.77;100.00
42247;BME280;27913;42.722;23.268;2023-05-16T02:28:59;94483.91;;;13.17;100.00
42247;BME280;27913;42.722;23.268;2023-05-16T02:31:30;94601.41;;;13.84;100.00
42247;BME280;27913;42.722;23.268;2023-05-16T02:33:56;94464.13;;;13.01;100.00
42247;BME280;27913;42.722;23.268;2023-05-16T02:36:23;94600.59;;;13.84;100.00
42247;BME280;27913;42.722;23.268;2023-05-16T02:38:49;94407.69;;;12.51;100.00
42247;BME280;27913;42.722;23.268;2023-05-16T02:41:16;94609.06;;;13.67;100.00
42247;BME280;27913;42.722;23.268;2023-05-16T02:43:42;94604.44;;;13.62;100.00
42247;BME280;27913;42.722;23.268;2023-05-16T02:46:27;94460.72;;;12.68;100.00
42247;BME280;27913;42.722;23.268;2023-05-16T02:48:53;94540.53;;;13.21;100.00
42247;BME280;27913;42.722;23.268;2023-05-16T02:51:20;94602.00;;;13.61;100.00
42247;BME280;27913;42.722;23.268;2023-05-16T02:53:46;94595.47;;;13.63;100.00
42247;BME280;27913;42.722;23.268;2023-05-16T02:56:11;94577.94;;;13.69;100.00
42247;BME280;27913;42.722;23.268;2023-05-16T02:58:38;94350.44;;;12.26;100.00
42247;BME280;27913;42.722;23.268;2023-05-16T03:01:03;94556.97;;;13.49;100.00
42247;BME280;27913;42.722;23.268;2023-05-16T03:03:29;94527.75;;;13.18;100.00
42247;BME280;27913;42.722;23.268;2023-05-16T03:05:54;94524.88;;;13.20;100.00
42247;BME280;27913;42.722;23.268;2023-05-16T03:08:20;94505.03;;;13.17;100.00
42247;BME280;27913;42.722;23.268;2023-05-16T03:10:46;94350.72;;;12.11;100.00
42247;BME280;27913;42.722;23.268;2023-05-16T03:13:11;94565.97;;;13.41;100.00
42247;BME280;27913;42.722;23.268;2023-05-16T03:15:37;94584.41;;;13.48;100.00
42247;BME280;27913;42.722;23.268;2023-05-16T03:18:03;94584.78;;;13.51;100.00
42247;BME280;27913;42.722;23.268;2023-05-16T03:20:28;94464.56;;;12.98;100.00
42247;BME280;27913;42.722;23.268;2023-05-16T03:22:54;94578.47;;;13.59;100.00
42247;BME280;27913;42.722;23.268;2023-05-16T03:25:19;94581.09;;;13.59;100.00
42247;BME280;27913;42.722;23.268;2023-05-16T03:27:45;94530.50;;;13.30;100.00
42247;BME280;27913;42.722;23.268;2023-05-16T03:30:11;94580.38;;;13.71;100.00
42247;BME280;27913;42.722;23.268;2023-05-16T03:32:37;94580.38;;;13.71;100.00
42247;BME280;27913;42.722;23.268;2023-05-16T03:35:03;94584.06;;;13.70;100.00
42247;BME280;27913;42.722;23.268;2023-05-16T03:37:29;94575.16;;;13.64;100.00
42247;BME280;27913;42.722;23.268;2023-05-16T03:39:54;94574.34;;;13.63;100.00
42247;BME280;27913;42.722;23.268;2023-05-16T03:42:20;94572.28;;;13.65;100.00
42247;BME280;27913;42.722;23.268;2023-05-16T03:44:45;94535.09;;;13.41;100.00
42247;BME280;27913;42.722;23.268;2023-05-16T03:47:11;94570.25;;;13.68;100.00
42247;BME280;27913;42.722;23.268;2023-05-16T03:49:36;94589.34;;;13.70;100.00
42247;BME280;27913;42.722;23.268;2023-05-16T03:52:05;94368.88;;;12.26;100.00
42247;BME280;27913;42.722;23.268;2023-05-16T03:54:30;94569.50;;;13.60;100.00
42247;BME280;27913;42.722;23.268;2023-05-16T03:56:56;94477.47;;;13.06;100.00
42247;BME280;27913;42.722;23.268;2023-05-16T03:59:21;94573.09;;;13.66;100.00
42247;BME280;27913;42.722;23.268;2023-05-16T04:01:46;94578.78;;;13.70;100.00
42247;BME280;27913;42.722;23.268;2023-05-16T04:04:12;94576.13;;;13.70;100.00
42247;BME280;27913;42.722;23.268;2023-05-16T04:06:38;94569.19;;;13.75;100.00
42247;BME280;27913;42.722;23.268;2023-05-16T04:09:04;94584.88;;;13.70;100.00
42247;BME280;27913;42.722;23.268;2023-05-16T04:11:30;94581.56;;;13.75;100.00
42247;BME280;27913;42.722;23.268;2023-05-16T04:13:56;94587.91;;;13.74;100.00
42247;BME280;27913;42.722;23.268;2023-05-16T04:16:23;94371.16;;;12.48;100.00
42247;BME280;27913;42.722;23.268;2023-05-16T04:18:48;94582.09;;;13.84;100.00
42247;BME280;27913;42.722;23.268;2023-05-16T04:21:14;94581.22;;;13.90;100.00
42247;BME280;27913;42.722;23.268;2023-05-16T04:23:40;94574.69;;;13.93;100.00
42247;BME280;27913;42.722;23.268;2023-05-16T04:26:06;94574.25;;;13.96;100.00
42247;BME280;27913;42.722;23.268;2023-05-16T04:28:32;94571.16;;;13.99;100.00
42247;BME280;27913;42.722;23.268;2023-05-16T04:30:57;94473.16;;;13.37;100.00
42247;BME280;27913;42.722;23.268;2023-05-16T04:33:23;94578.50;;;13.97;100.00
42247;BME280;27913;42.722;23.268;2023-05-16T04:35:48;94582.72;;;14.05;100.00
42247;BME280;27913;42.722;23.268;2023-05-16T04:38:14;94507.28;;;13.64;100.00
42247;BME280;27913;42.722;23.268;2023-05-16T04:40:40;94566.84;;;14.05;100.00
42247;BME280;27913;42.722;23.268;2023-05-16T04:43:08;94580.66;;;14.07;100.00
42247;BME280;27913;42.722;23.268;2023-05-16T04:45:34;94580.44;;;14.08;100.00
42247;BME280;27913;42.722;23.268;2023-05-16T04:48:00;94516.19;;;13.70;100.00
42247;BME280;27913;42.722;23.268;2023-05-16T04:50:26;94568.25;;;14.07;100.00
42247;BME280;27913;42.722;23.268;2023-05-16T04:52:51;94577.34;;;14.11;100.00
42247;BME280;27913;42.722;23.268;2023-05-16T04:55:17;94577.34;;;14.11;100.00
42247;BME280;27913;42.722;23.268;2023-05-16T04:57:43;94526.44;;;13.79;100.00
42247;BME280;27913;42.722;23.268;2023-05-16T05:00:09;94482.38;;;13.53;99.93
42247;BME280;27913;42.722;23.268;2023-05-16T05:02:37;94562.97;;;14.07;100.00
42247;BME280;27913;42.722;23.268;2023-05-16T05:05:04;94566.03;;;14.04;100.00
42247;BME280;27913;42.722;23.268;2023-05-16T05:07:30;94571.53;;;14.03;100.00
42247;BME280;27913;42.722;23.268;2023-05-16T05:09:55;94563.63;;;14.03;100.00
42247;BME280;27913;42.722;23.268;2023-05-16T05:12:21;94525.94;;;13.70;100.00
42247;BME280;27913;42.722;23.268;2023-05-16T05:14:47;94382.34;;;12.75;100.00
42247;BME280;27913;42.722;23.268;2023-05-16T05:17:12;94580.13;;;13.98;100.00
42247;BME280;27913;42.722;23.268;2023-05-16T05:19:37;94579.31;;;13.97;100.00
42247;BME280;27913;42.722;23.268;2023-05-16T05:22:03;94572.00;;;13.99;100.00
42247;BME280;27913;42.722;23.268;2023-05-16T05:24:28;94444.69;;;13.21;100.00
42247;BME280;27913;42.722;23.268;2023-05-16T05:26:54;94562.31;;;13.93;100.00
42247;BME280;27913;42.722;23.268;2023-05-16T05:29:30;94357.56;;;12.76;100.00
42247;BME280;27913;42.722;23.268;2023-05-16T05:31:56;94561.41;;;14.18;100.00
42247;BME280;27913;42.722;23.268;2023-05-16T05:34:22;94437.88;;;13.50;100.00
42247;BME280;27913;42.722;23.268;2023-05-16T05:36:47;94549.16;;;14.24;100.00
42247;BME280;27913;42.722;23.268;2023-05-16T05:39:13;94454.59;;;13.70;100.00
42247;BME280;27913;42.722;23.268;2023-05-16T05:41:38;94542.97;;;14.30;100.00
42247;BME280;27913;42.722;23.268;2023-05-16T05:44:04;94440.78;;;13.68;100.00
42247;BME280;27913;42.722;23.268;2023-05-16T05:46:31;94477.56;;;14.07;100.00
42247;BME280;27913;42.722;23.268;2023-05-16T05:48:56;94540.31;;;14.49;99.96
42247;BME280;27913;42.722;23.268;2023-05-16T05:51:23;94542.50;;;14.52;100.00
42247;BME280;27913;42.722;23.268;2023-05-16T05:53:48;94539.56;;;14.60;99.82
42247;BME280;27913;42.722;23.268;2023-05-16T05:56:14;94491.03;;;14.36;98.82
42247;BME280;27913;42.722;23.268;2023-05-16T05:58:40;94542.81;;;14.74;98.10
42247;BME280;27913;42.722;23.268;2023-05-16T06:01:10;94425.69;;;14.06;97.39
42247;BME280;27913;42.722;23.268;2023-05-16T06:03:35;94491.28;;;14.46;97.27
42247;BME280;27913;42.722;23.268;2023-05-16T06:06:02;94521.97;;;14.66;97.44
42247;BME280;27913;42.722;23.268;2023-05-16T06:08:27;94564.22;;;14.92;97.28
42247;BME280;27913;42.722;23.268;2023-05-16T06:10:53;94539.72;;;14.96;97.08
42247;BME280;27913;42.722;23.268;2023-05-16T06:13:18;94539.63;;;15.03;96.22
42247;BME280;27913;42.722;23.268;2023-05-16T06:15:49;94347.75;;;13.96;95.18
42247;BME280;27913;42.722;23.268;2023-05-16T06:18:14;94345.69;;;13.98;94.82
42247;BME280;27913;42.722;23.268;2023-05-16T06:20:40;94531.81;;;15.08;95.12
42247;BME280;27913;42.722;23.268;2023-05-16T06:23:06;94543.72;;;15.30;94.89
42247;BME280;27913;42.722;23.268;2023-05-16T06:25:31;94473.31;;;14.98;94.78
42247;BME280;27913;42.722;23.268;2023-05-16T06:27:57;94540.50;;;15.40;93.76
42247;BME280;27913;42.722;23.268;2023-05-16T06:30:22;94526.09;;;15.36;93.96
42247;BME280;27913;42.722;23.268;2023-05-16T06:32:48;94548.09;;;15.36;93.30
42247;BME280;27913;42.722;23.268;2023-05-16T06:35:14;94485.72;;;14.97;93.54
42247;BME280;27913;42.722;23.268;2023-05-16T06:37:39;94540.59;;;15.33;93.12
42247;BME280;27913;42.722;23.268;2023-05-16T06:40:06;94485.84;;;15.03;92.89
42247;BME280;27913;42.722;23.268;2023-05-16T06:42:31;94435.88;;;14.82;92.21
42247;BME280;27913;42.722;23.268;2023-05-16T06:44:57;94527.13;;;15.46;91.77
42247;BME280;27913;42.722;23.268;2023-05-16T06:47:22;94523.91;;;15.44;91.57
42247;BME280;27913;42.722;23.268;2023-05-16T06:49:48;94527.38;;;15.45;91.18
42247;BME280;27913;42.722;23.268;2023-05-16T06:52:14;94466.66;;;15.07;91.42
42247;BME280;27913;42.722;23.268;2023-05-16T06:54:40;94291.31;;;14.03;91.27
42247;BME280;27913;42.722;23.268;2023-05-16T06:57:06;94398.78;;;14.70;89.86
42247;BME280;27913;42.722;23.268;2023-05-16T06:59:33;94503.28;;;15.46;89.59
42247;BME280;27913;42.722;23.268;2023-05-16T07:01:59;94433.13;;;15.13;88.97
42247;BME280;27913;42.722;23.268;2023-05-16T07:04:25;94434.28;;;15.17;89.02
42247;BME280;27913;42.722;23.268;2023-05-16T07:06:51;94434.19;;;15.24;88.66
42247;BME280;27913;42.722;23.268;2023-05-16T07:09:17;94393.75;;;15.05;88.46
42247;BME280;27913;42.722;23.268;2023-05-16T07:11:43;94409.19;;;15.20;88.81
42247;BME280;27913;42.722;23.268;2023-05-16T07:14:08;94437.53;;;15.31;88.41
42247;BME280;27913;42.722;23.268;2023-05-16T07:16:34;94414.50;;;15.32;87.97
42247;BME280;27913;42.722;23.268;2023-05-16T07:19:00;94476.78;;;15.70;87.84
42247;BME280;27913;42.722;23.268;2023-05-16T07:21:26;94323.44;;;14.85;87.53
42247;BME280;27913;42.722;23.268;2023-05-16T07:23:51;94417.69;;;15.34;87.84
42247;BME280;27913;42.722;23.268;2023-05-16T07:26:17;94249.09;;;14.39;87.20
42247;BME280;27913;42.722;23.268;2023-05-16T07:28:43;94410.22;;;15.43;87.05
42247;BME280;27913;42.722;23.268;2023-05-16T07:31:08;94415.06;;;15.46;86.62
42247;BME280;27913;42.722;23.268;2023-05-16T07:33:34;94426.34;;;15.41;86.45
42247;BME280;27913;42.722;23.268;2023-05-16T07:35:59;94382.34;;;15.16;85.82
42247;BME280;27913;42.722;23.268;2023-05-16T07:38:25;94448.19;;;15.73;85.62
42247;BME280;27913;42.722;23.268;2023-05-16T07:40:51;94486.88;;;15.98;85.55
42247;BME280;27913;42.722;23.268;2023-05-16T07:43:17;94441.53;;;15.70;84.91
42247;BME280;27913;42.722;23.268;2023-05-16T07:45:42;94447.03;;;15.80;84.07
42247;BME280;27913;42.722;23.268;2023-05-16T07:48:08;94496.81;;;16.14;84.19
42247;BME280;27913;42.722;23.268;2023-05-16T07:50:33;94498.16;;;16.17;84.17
42247;BME280;27913;42.722;23.268;2023-05-16T07:52:59;94444.13;;;15.94;83.61
42247;BME280;27913;42.722;23.268;2023-05-16T07:55:25;94487.75;;;16.27;84.12
42247;BME280;27913;42.722;23.268;2023-05-16T07:57:50;94300.72;;;15.13;83.28
42247;BME280;27913;42.722;23.268;2023-05-16T08:00:16;94466.41;;;16.34;82.64
42247;BME280;27913;42.722;23.268;2023-05-16T08:02:42;94491.44;;;16.38;82.47
42247;BME280;27913;42.722;23.268;2023-05-16T08:05:29;94232.97;;;15.00;81.62
42247;BME280;27913;42.722;23.268;2023-05-16T08:07:54;94271.94;;;15.17;81.44
42247;BME280;27913;42.722;23.268;2023-05-16T08:10:21;94282.06;;;15.32;81.30
42247;BME280;27913;42.722;23.268;2023-05-16T08:12:47;94309.63;;;15.60;80.93
42247;BME280;27913;42.722;23.268;2023-05-16T08:15:13;94329.88;;;15.96;79.98
42247;BME280;27913;42.722;23.268;2023-05-16T08:17:39;94249.13;;;15.57;79.75
42247;BME280;27913;42.722;23.268;2023-05-16T08:20:04;94356.19;;;16.44;79.58
42247;BME280;27913;42.722;23.268;2023-05-16T08:22:31;94434.09;;;17.01;78.68
42247;BME280;27913;42.722;23.268;2023-05-16T08:24:57;94380.72;;;16.85;78.39
42247;BME280;27913;42.722;23.268;2023-05-16T08:27:25;94451.41;;;17.38;77.90
42247;BME280;27913;42.722;23.268;2023-05-16T08:29:50;94377.63;;;16.88;77.68
42247;BME280;27913;42.722;23.268;2023-05-16T08:32:16;94310.84;;;16.45;78.00
42247;BME280;27913;42.722;23.268;2023-05-16T08:34:41;94450.88;;;17.36;78.16
42247;BME280;27913;42.722;23.268;2023-05-16T08:37:07;94395.06;;;17.19;77.41
42247;BME280;27913;42.722;23.268;2023-05-16T08:39:33;94261.66;;;16.37;76.88
42247;BME280;27913;42.722;23.268;2023-05-16T08:41:59;94443.25;;;17.62;77.07
42247;BME280;27913;42.722;23.268;2023-05-16T08:44:24;94343.06;;;17.06;76.79
42247;BME280;27913;42.722;23.268;2023-05-16T08:46:52;94359.25;;;17.21;76.13
42247;BME280;27913;42.722;23.268;2023-05-16T08:49:18;94434.47;;;17.84;75.34
42247;BME280;27913;42.722;23.268;2023-05-16T08:51:46;94438.50;;;17.86;76.07
42247;BME280;27913;42.722;23.268;2023-05-16T08:54:13;94442.13;;;17.80;75.75
42247;BME280;27913;42.722;23.268;2023-05-16T08:56:41;94446.13;;;18.00;75.21
42247;BME280;27913;42.722;23.268;2023-05-16T08:59:09;94458.81;;;18.15;75.71
42247;BME280;27913;42.722;23.268;2023-05-16T09:01:35;94424.59;;;18.02;74.83
42247;BME280;27913;42.722;23.268;2023-05-16T09:04:02;94394.56;;;18.06;74.23
42247;BME280;27913;42.722;23.268;2023-05-16T09:06:28;94462.59;;;18.69;72.63
42247;BME280;27913;42.722;23.268;2023-05-16T09:08:54;94456.69;;;18.95;72.14
42247;BME280;27913;42.722;23.268;2023-05-16T09:11:19;94448.44;;;18.97;72.17
42247;BME280;27913;42.722;23.268;2023-05-16T09:13:46;94389.88;;;18.69;71.99
42247;BME280;27913;42.722;23.268;2023-05-16T09:16:18;94314.19;;;18.27;71.07
42247;BME280;27913;42.722;23.268;2023-05-16T09:18:46;94349.19;;;18.41;71.55
42247;BME280;27913;42.722;23.268;2023-05-16T09:21:18;94452.97;;;18.96;70.45
42247;BME280;27913;42.722;23.268;2023-05-16T09:23:43;94449.00;;;18.99;71.20
42247;BME280;27913;42.722;23.268;2023-05-16T09:26:09;94414.66;;;18.69;71.35
42247;BME280;27913;42.722;23.268;2023-05-16T09:28:37;94405.94;;;18.79;70.94
42247;BME280;27913;42.722;23.268;2023-05-16T09:31:03;94277.88;;;17.87;70.73
42247;BME280;27913;42.722;23.268;2023-05-16T09:33:28;94400.53;;;18.69;71.03
42247;BME280;27913;42.722;23.268;2023-05-16T09:35:58;94450.34;;;19.01;71.22
42247;BME280;27913;42.722;23.268;2023-05-16T09:38:27;94397.97;;;18.79;70.95
42247;BME280;27913;42.722;23.268;2023-05-16T09:40:53;94437.56;;;19.03;70.83
42247;BME280;27913;42.722;23.268;2023-05-16T09:43:25;94343.59;;;18.42;70.77
42247;BME280;27913;42.722;23.268;2023-05-16T09:45:51;94430.50;;;19.14;71.07
42247;BME280;27913;42.722;23.268;2023-05-16T09:48:19;94385.25;;;18.87;71.45
42247;BME280;27913;42.722;23.268;2023-05-16T09:50:52;94384.44;;;18.86;71.45
42247;BME280;27913;42.722;23.268;2023-05-16T09:53:29;94358.22;;;18.73;69.97
42247;BME280;27913;42.722;23.268;2023-05-16T09:55:59;94411.03;;;19.14;69.84
42247;BME280;27913;42.722;23.268;2023-05-16T09:58:35;94437.28;;;19.33;69.65
42247;BME280;27913;42.722;23.268;2023-05-16T10:01:03;94229.25;;;18.20;69.88
42247;BME280;27913;42.722;23.268;2023-05-16T10:03:29;94384.78;;;19.38;68.76
42247;BME280;27913;42.722;23.268;2023-05-16T10:05:55;94382.00;;;19.61;67.89
42247;BME280;27913;42.722;23.268;2023-05-16T10:08:23;94384.22;;;19.79;67.37
42247;BME280;27913;42.722;23.268;2023-05-16T10:10:58;94443.13;;;20.37;66.42
42247;BME280;27913;42.722;23.268;2023-05-16T10:13:28;94446.91;;;20.46;65.71
42247;BME280;27913;42.722;23.268;2023-05-16T10:15:55;94434.09;;;20.54;65.15
42247;BME280;27913;42.722;23.268;2023-05-16T10:18:22;94407.94;;;20.56;65.31
42247;BME280;27913;42.722;23.268;2023-05-16T10:20:52;94432.78;;;20.72;63.84
42247;BME280;27913;42.722;23.268;2023-05-16T10:23:19;94337.91;;;20.12;63.89
42247;BME280;27913;42.722;23.268;2023-05-16T10:25:47;94309.84;;;20.04;63.56
42247;BME280;27913;42.722;23.268;2023-05-16T10:28:14;94369.16;;;20.27;63.22
42247;BME280;27913;42.722;23.268;2023-05-16T10:30:42;94386.53;;;20.45;62.76
42247;BME280;27913;42.722;23.268;2023-05-16T10:33:14;94407.09;;;20.29;64.29
42247;BME280;27913;42.722;23.268;2023-05-16T10:35:39;94394.72;;;20.07;65.16
42247;BME280;27913;42.722;23.268;2023-05-16T10:38:06;94314.69;;;19.33;65.77
42247;BME280;27913;42.722;23.268;2023-05-16T10:40:34;94316.88;;;19.46;65.84
42247;BME280;27913;42.722;23.268;2023-05-16T10:43:01;94302.91;;;19.23;66.37
42247;BME280;27913;42.722;23.268;2023-05-16T10:45:28;94343.63;;;19.67;66.63
42247;BME280;27913;42.722;23.268;2023-05-16T10:47:55;94264.31;;;19.36;66.13
42247;BME280;27913;42.722;23.268;2023-05-16T10:50:33;94328.75;;;19.92;66.03
42247;BME280;27913;42.722;23.268;2023-05-16T11:04:00;94357.22;;;19.65;67.52
42247;BME280;27913;42.722;23.268;2023-05-16T11:11:43;94376.75;;;19.28;67.87
42247;BME280;27913;42.722;23.268;2023-05-16T11:14:23;94380.72;;;19.20;68.83
42247;BME280;27913;42.722;23.268;2023-05-16T11:16:50;94285.03;;;18.42;69.04
42247;BME280;27913;42.722;23.268;2023-05-16T11:19:48;94444.75;;;19.30;69.76
42247;BME280;27913;42.722;23.268;2023-05-16T11:22:20;94401.09;;;19.04;70.21
42247;BME280;27913;42.722;23.268;2023-05-16T11:27:34;94452.09;;;19.18;70.18
42247;BME280;27913;42.722;23.268;2023-05-16T11:32:36;94368.13;;;18.77;70.57
42247;BME280;27913;42.722;23.268;2023-05-16T11:35:03;94434.75;;;19.15;70.99
42247;BME280;27913;42.722;23.268;2023-05-16T11:37:28;94428.09;;;19.13;71.42
42247;BME280;27913;42.722;23.268;2023-05-16T11:40:04;94343.34;;;18.44;71.32
42247;BME280;27913;42.722;23.268;2023-05-16T11:42:33;94424.22;;;18.98;72.21
42247;BME280;27913;42.722;23.268;2023-05-16T11:45:04;94404.47;;;18.94;72.55
42247;BME280;27913;42.722;23.268;2023-05-16T11:47:30;94417.34;;;19.07;72.11
42247;BME280;27913;42.722;23.268;2023-05-16T11:49:57;94361.50;;;18.80;72.16
42247;BME280;27913;42.722;23.268;2023-05-16T11:52:22;94422.50;;;19.14;72.60
42247;BME280;27913;42.722;23.268;2023-05-16T11:54:48;94423.59;;;19.18;72.48
42247;BME280;27913;42.722;23.268;2023-05-16T11:57:15;94372.22;;;18.90;72.68
42247;BME280;27913;42.722;23.268;2023-05-16T11:59:41;94430.31;;;19.26;71.90
42247;BME280;27913;42.722;23.268;2023-05-16T12:02:07;94428.78;;;19.36;70.84
42247;BME280;27913;42.722;23.268;2023-05-16T12:04:34;94330.06;;;18.82;70.63
42247;BME280;27913;42.722;23.268;2023-05-16T12:07:00;94225.94;;;18.40;70.42
42247;BME280;27913;42.722;23.268;2023-05-16T12:09:26;94237.81;;;18.65;70.65
42247;BME280;27913;42.722;23.268;2023-05-16T12:11:52;94378.59;;;19.81;69.96
42247;BME280;27913;42.722;23.268;2023-05-16T12:14:18;94272.84;;;19.38;69.22
42247;BME280;27913;42.722;23.268;2023-05-16T12:16:44;94378.69;;;20.02;70.06
42247;BME280;27913;42.722;23.268;2023-05-16T12:19:10;94387.53;;;20.08;69.48
42247;BME280;27913;42.722;23.268;2023-05-16T12:21:37;94385.69;;;20.08;68.98
42247;BME280;27913;42.722;23.268;2023-05-16T12:24:03;94272.06;;;19.43;68.42
42247;BME280;27913;42.722;23.268;2023-05-16T12:26:30;94379.03;;;20.32;66.84
42247;BME280;27913;42.722;23.268;2023-05-16T12:28:57;94384.13;;;20.49;66.53
42247;BME280;27913;42.722;23.268;2023-05-16T12:31:25;94385.78;;;20.71;66.72
42247;BME280;27913;42.722;23.268;2023-05-16T12:33:54;94381.25;;;20.66;67.08
42247;BME280;27913;42.722;23.268;2023-05-16T12:36:21;94276.78;;;20.15;66.07
42247;BME280;27913;42.722;23.268;2023-05-16T12:38:47;94371.88;;;20.74;66.00
42247;BME280;27913;42.722;23.268;2023-05-16T12:41:22;94209.75;;;19.75;66.16
42247;BME280;27913;42.722;23.268;2023-05-16T12:43:48;94390.84;;;20.78;67.02
42247;BME280;27913;42.722;23.268;2023-05-16T12:46:14;94387.34;;;20.56;68.06
42247;BME280;27913;42.722;23.268;2023-05-16T12:48:40;94382.53;;;20.43;69.17
42247;BME280;27913;42.722;23.268;2023-05-16T12:51:14;94387.03;;;20.26;69.67
42247;BME280;27913;42.722;23.268;2023-05-16T12:53:42;94216.19;;;19.05;69.32
42247;BME280;27913;42.722;23.268;2023-05-16T12:56:08;94207.81;;;18.80;70.10
42247;BME280;27913;42.722;23.268;2023-05-16T12:58:34;94346.47;;;19.50;70.02
42247;BME280;27913;42.722;23.268;2023-05-16T13:00:59;94402.59;;;19.76;70.47
42247;BME280;27913;42.722;23.268;2023-05-16T13:03:25;94361.09;;;19.42;70.90
42247;BME280;27913;42.722;23.268;2023-05-16T13:05:51;94401.75;;;19.65;70.69
42247;BME280;27913;42.722;23.268;2023-05-16T13:08:17;94421.72;;;19.57;70.37
42247;BME280;27913;42.722;23.268;2023-05-16T13:10:42;94340.63;;;19.04;70.81
42247;BME280;27913;42.722;23.268;2023-05-16T13:13:08;94411.53;;;19.54;71.03
42247;BME280;27913;42.722;23.268;2023-05-16T13:18:03;94406.44;;;19.47;71.92
42247;BME280;27913;42.722;23.268;2023-05-16T13:20:28;94327.44;;;18.87;72.44
42247;BME280;27913;42.722;23.268;2023-05-16T13:22:54;94274.72;;;18.51;71.56
42247;BME280;27913;42.722;23.268;2023-05-16T13:25:20;94299.94;;;18.76;71.75